createdAt,value
2022-09-26T00:01:54.504Z,11.35
2022-09-26T00:04:27.936Z,8.45
2022-09-26T00:06:58.010Z,8.27
2022-09-26T00:09:27.783Z,9.18
2022-09-26T00:11:55.390Z,9.63
2022-09-26T00:14:23.725Z,11.48
2022-09-26T00:16:51.165Z,9.52
2022-09-26T00:19:18.867Z,13.57
2022-09-26T00:21:47.667Z,8.30
2022-09-26T00:24:15.453Z,7.82
2022-09-26T00:26:42.901Z,11.98
2022-09-26T00:29:11.487Z,9.20
2022-09-26T00:31:40.131Z,6.32
2022-09-26T00:34:07.748Z,7.32
2022-09-26T00:36:38.335Z,9.43
2022-09-26T00:39:08.893Z,6.45
2022-09-26T00:41:37.078Z,9.25
2022-09-26T00:44:24.472Z,13.70
2022-09-26T00:46:51.988Z,12.63
2022-09-26T00:49:23.719Z,10.82
2022-09-26T00:51:53.071Z,9.45
2022-09-26T00:54:22.002Z,11.30
2022-09-26T00:56:52.693Z,11.40
2022-09-26T00:59:23.147Z,9.60
2022-09-26T01:01:50.924Z,9.73
2022-09-26T01:04:18.507Z,10.48
2022-09-26T01:06:46.271Z,9.63
2022-09-26T01:09:14.689Z,10.25
2022-09-26T01:11:44.541Z,10.88
2022-09-26T01:14:12.642Z,10.57
2022-09-26T01:16:40.725Z,8.68
2022-09-26T01:19:18.008Z,12.93
2022-09-26T01:21:54.177Z,7.45
2022-09-26T01:24:38.160Z,12.50
2022-09-26T01:27:14.921Z,7.95
2022-09-26T01:29:57.396Z,7.07
2022-09-26T01:32:50.802Z,11.02
2022-09-26T01:35:28.995Z,9.70
2022-09-26T01:38:00.251Z,12.38
2022-09-26T01:40:32.422Z,8.90
2022-09-26T01:43:05.665Z,9.63
2022-09-26T01:45:37.177Z,12.57
2022-09-26T01:48:08.327Z,11.07
2022-09-26T01:50:39.272Z,14.25
2022-09-26T01:53:09.181Z,22.42
2022-09-26T01:55:39.505Z,9.88
2022-09-26T01:58:09.288Z,14.85
2022-09-26T02:00:37.962Z,8.75
2022-09-26T02:03:10.039Z,12.25
2022-09-26T02:05:41.108Z,10.52
2022-09-26T02:08:15.672Z,8.15
2022-09-26T02:10:47.938Z,13.23
2022-09-26T02:13:17.595Z,9.98
2022-09-26T02:15:47.357Z,11.48
2022-09-26T02:18:20.705Z,15.85
2022-09-26T02:20:50.360Z,8.65
2022-09-26T02:23:18.042Z,14.27
2022-09-26T02:25:45.622Z,16.35
2022-09-26T02:28:14.195Z,8.40
2022-09-26T02:30:42.563Z,10.00
2022-09-26T02:33:10.288Z,12.90
2022-09-26T02:35:57.611Z,8.43
2022-09-26T02:38:29.139Z,10.75
2022-09-26T02:41:08.703Z,16.38
2022-09-26T02:43:43.527Z,14.50
2022-09-26T02:46:20.831Z,14.20
2022-09-26T02:48:54.989Z,10.57
2022-09-26T02:51:31.906Z,12.40
2022-09-26T02:54:16.544Z,9.68
2022-09-26T02:56:50.314Z,14.23
2022-09-26T02:59:21.971Z,21.48
2022-09-26T03:01:53.963Z,12.05
2022-09-26T03:04:24.747Z,20.83
2022-09-26T03:06:55.080Z,15.77
2022-09-26T03:09:24.052Z,19.00
2022-09-26T03:11:53.659Z,16.30
2022-09-26T03:14:21.852Z,17.42
2022-09-26T03:16:51.628Z,14.77
2022-09-26T03:19:23.375Z,15.27
2022-09-26T03:21:52.841Z,18.60
2022-09-26T03:24:20.315Z,14.90
2022-09-26T03:29:15.532Z,19.55
2022-09-26T03:31:44.930Z,14.48
2022-09-26T03:34:12.798Z,25.85
2022-09-26T03:36:40.690Z,16.13
2022-09-26T03:39:11.524Z,13.25
2022-09-26T03:41:50.349Z,15.23
2022-09-26T03:44:26.272Z,14.40
2022-09-26T03:47:14.317Z,17.42
2022-09-26T03:49:44.350Z,16.90
2022-09-26T03:52:13.312Z,17.63
2022-09-26T03:54:42.788Z,20.58
2022-09-26T03:57:12.662Z,13.23
2022-09-26T03:59:45.750Z,15.65
2022-09-26T04:02:13.767Z,16.08
2022-09-26T04:04:45.317Z,16.35
2022-09-26T04:07:12.726Z,19.27
2022-09-26T04:09:40.131Z,20.15
2022-09-26T04:12:09.253Z,15.05
2022-09-26T04:14:40.391Z,17.45
2022-09-26T04:17:07.877Z,14.63
2022-09-26T04:19:42.525Z,16.30
2022-09-26T04:24:38.307Z,16.80
2022-09-26T04:27:08.466Z,13.70
2022-09-26T04:29:37.649Z,17.13
2022-09-26T04:32:17.434Z,14.88
2022-09-26T04:37:33.237Z,22.55
2022-09-26T04:40:00.692Z,20.17
2022-09-26T04:42:28.400Z,17.15
2022-09-26T04:44:57.247Z,20.90
2022-09-26T04:47:24.650Z,14.73
2022-09-26T04:50:18.084Z,13.63
2022-09-26T04:53:02.262Z,14.90
2022-09-26T04:55:29.699Z,15.68
2022-09-26T04:57:57.192Z,20.02
2022-09-26T05:00:26.731Z,17.73
2022-09-26T05:02:56.136Z,15.48
2022-09-26T05:05:24.250Z,17.67
2022-09-26T05:07:52.394Z,17.02
2022-09-26T05:10:19.845Z,19.52
2022-09-26T05:12:54.835Z,20.10
2022-09-26T05:15:22.691Z,15.98
2022-09-26T05:17:56.328Z,27.65
2022-09-26T05:20:24.503Z,13.13
2022-09-26T05:22:59.656Z,15.82
2022-09-26T05:25:45.408Z,17.55
2022-09-26T05:28:13.211Z,16.38
2022-09-26T05:30:41.053Z,21.95
2022-09-26T05:33:12.942Z,18.40
2022-09-26T05:35:40.708Z,19.67
2022-09-26T05:38:08.186Z,19.48
2022-09-26T05:41:06.080Z,12.77
2022-09-26T05:43:34.813Z,19.45
2022-09-26T05:46:06.453Z,19.85
2022-09-26T05:48:40.285Z,19.33
2022-09-26T05:51:13.118Z,20.35
2022-09-26T05:53:43.940Z,20.15
2022-09-26T05:56:18.584Z,21.10
2022-09-26T05:59:18.955Z,18.17
2022-09-26T06:02:05.702Z,19.33
2022-09-26T06:04:52.373Z,16.05
2022-09-26T06:07:38.029Z,19.67
2022-09-26T06:10:10.227Z,16.50
2022-09-26T06:13:01.192Z,15.07
2022-09-26T06:15:29.796Z,12.90
2022-09-26T06:18:00.864Z,14.30
2022-09-26T06:20:29.625Z,18.85
2022-09-26T06:22:57.428Z,21.90
2022-09-26T06:25:24.933Z,19.13
2022-09-26T06:27:59.770Z,15.80
2022-09-26T06:30:27.996Z,14.15
2022-09-26T06:33:03.701Z,12.35
2022-09-26T06:35:47.430Z,10.80
2022-09-26T06:38:22.540Z,12.48
2022-09-26T06:40:52.820Z,10.52
2022-09-26T06:43:20.622Z,14.32
2022-09-26T06:46:17.619Z,10.63
2022-09-26T06:48:57.958Z,20.00
2022-09-26T06:51:43.637Z,14.73
2022-09-26T06:54:11.192Z,17.13
2022-09-26T06:56:38.571Z,18.67
2022-09-26T06:59:06.173Z,14.90
2022-09-26T07:01:35.709Z,9.88
2022-09-26T07:04:11.388Z,10.73
2022-09-26T07:06:46.035Z,11.10
2022-09-26T07:09:14.128Z,24.60
2022-09-26T07:12:14.251Z,14.10
2022-09-26T07:17:18.652Z,10.93
2022-09-26T07:20:05.651Z,14.13
2022-09-26T07:22:56.385Z,13.60
2022-09-26T07:25:23.799Z,13.63
2022-09-26T07:30:22.060Z,8.27
2022-09-26T07:33:02.991Z,14.67
2022-09-26T07:35:36.132Z,15.65
2022-09-26T07:38:05.046Z,9.85
2022-09-26T07:40:32.790Z,11.60
2022-09-26T07:43:18.557Z,12.55
2022-09-26T07:46:04.740Z,25.80
2022-09-26T07:48:50.132Z,12.45
2022-09-26T07:51:54.789Z,12.40
2022-09-26T07:54:25.018Z,9.73
2022-09-26T07:57:11.621Z,16.05
2022-09-26T07:59:50.266Z,10.87
2022-09-26T08:02:36.355Z,15.63
2022-09-26T08:05:06.021Z,10.82
2022-09-26T08:07:35.282Z,10.98
2022-09-26T08:10:18.408Z,11.38
2022-09-26T08:13:04.554Z,15.60
2022-09-26T08:15:50.580Z,12.70
2022-09-26T08:18:24.541Z,21.65
2022-09-26T08:20:51.994Z,12.02
2022-09-26T08:23:19.927Z,9.65
2022-09-26T08:26:04.137Z,9.55
2022-09-26T08:28:42.690Z,10.55
2022-09-26T08:31:11.442Z,6.82
2022-09-26T08:33:40.070Z,11.75
2022-09-26T08:36:08.093Z,11.40
2022-09-26T08:38:51.918Z,7.35
2022-09-26T08:41:55.340Z,15.38
2022-09-26T08:44:46.797Z,12.38
2022-09-26T08:47:39.383Z,7.97
2022-09-26T08:50:24.633Z,19.50
2022-09-26T08:52:53.813Z,14.48
2022-09-26T08:55:22.375Z,16.85
2022-09-26T08:57:53.949Z,14.68
2022-09-26T09:00:22.430Z,15.57
2022-09-26T09:03:05.347Z,9.18
2022-09-26T09:05:35.084Z,16.23
2022-09-26T09:08:07.797Z,12.82
2022-09-26T09:10:44.404Z,15.45
2022-09-26T09:13:35.885Z,14.60
2022-09-26T09:16:26.011Z,7.75
2022-09-26T09:19:27.217Z,6.82
2022-09-26T09:22:23.953Z,8.98
2022-09-26T09:27:53.863Z,9.05
2022-09-26T09:30:25.240Z,15.18
2022-09-26T09:32:57.051Z,13.75
2022-09-26T09:35:45.937Z,10.65
2022-09-26T09:38:32.921Z,11.75
2022-09-26T09:41:05.219Z,8.35
2022-09-26T09:43:35.973Z,10.77
2022-09-26T09:46:06.452Z,6.78
2022-09-26T09:48:34.084Z,7.60
2022-09-26T09:51:10.446Z,6.50
2022-09-26T09:53:42.160Z,11.80
2022-09-26T09:56:13.981Z,16.92
2022-09-26T09:58:48.934Z,9.40
2022-09-26T10:01:21.432Z,14.65
2022-09-26T10:03:55.238Z,6.22
2022-09-26T10:06:45.916Z,12.30
2022-09-26T10:09:39.138Z,8.07
2022-09-26T10:12:29.377Z,18.17
2022-09-26T10:15:32.158Z,14.18
2022-09-26T10:18:25.759Z,9.60
2022-09-26T10:21:12.125Z,6.97
2022-09-26T10:23:40.785Z,6.28
2022-09-26T10:26:14.892Z,8.77
2022-09-26T10:28:45.096Z,11.85
2022-09-26T10:31:15.262Z,12.40
2022-09-26T10:34:05.834Z,5.43
2022-09-26T10:36:34.833Z,5.47
2022-09-26T10:39:21.559Z,10.30
2022-09-26T10:41:57.724Z,8.27
2022-09-26T10:44:26.892Z,8.40
2022-09-26T10:47:08.214Z,7.85
2022-09-26T10:49:59.033Z,7.00
2022-09-26T10:52:46.875Z,6.97
2022-09-26T10:55:16.525Z,10.85
2022-09-26T10:57:46.864Z,5.30
2022-09-26T11:00:19.411Z,7.22
2022-09-26T11:02:47.922Z,5.63
2022-09-26T11:05:35.338Z,7.05
2022-09-26T11:08:21.985Z,5.57
2022-09-26T11:11:11.155Z,7.00
2022-09-26T11:13:46.568Z,8.15
2022-09-26T11:16:15.566Z,4.57
2022-09-26T11:18:49.145Z,5.00
2022-09-26T11:21:28.839Z,5.40
2022-09-26T11:24:02.946Z,8.40
2022-09-26T11:26:34.192Z,8.00
2022-09-26T11:29:09.320Z,7.88
2022-09-26T11:31:47.085Z,6.47
2022-09-26T11:34:26.625Z,4.97
2022-09-26T11:37:10.429Z,4.63
2022-09-26T11:39:44.251Z,6.68
2022-09-26T11:42:17.718Z,6.07
2022-09-26T11:44:52.828Z,5.60
2022-09-26T11:47:30.745Z,12.25
2022-09-26T11:50:12.100Z,4.50
2022-09-26T11:53:20.215Z,7.13
2022-09-26T11:55:54.989Z,5.47
2022-09-26T11:58:25.895Z,6.32
2022-09-26T12:00:58.043Z,4.30
2022-09-26T12:03:45.461Z,4.63
2022-09-26T12:06:18.848Z,5.45
2022-09-26T12:09:09.997Z,5.38
2022-09-26T12:11:42.333Z,7.07
2022-09-26T12:14:15.673Z,5.32
2022-09-26T12:16:46.518Z,9.52
2022-09-26T12:19:17.837Z,3.65
2022-09-26T12:22:05.920Z,9.52
2022-09-26T12:24:37.277Z,5.15
2022-09-26T12:27:09.722Z,8.73
2022-09-26T12:29:41.900Z,3.53
2022-09-26T12:32:15.910Z,4.75
2022-09-26T12:34:47.514Z,5.13
2022-09-26T12:37:23.458Z,2.85
2022-09-26T12:40:04.791Z,5.82
2022-09-26T12:42:41.015Z,5.85
2022-09-26T12:45:17.992Z,2.58
2022-09-26T12:48:04.861Z,6.07
2022-09-26T12:50:37.585Z,6.03
2022-09-26T12:53:12.499Z,5.65
2022-09-26T12:55:44.803Z,5.25
2022-09-26T12:58:26.489Z,6.10
2022-09-26T13:00:56.539Z,5.80
2022-09-26T13:03:42.419Z,7.50
2022-09-26T13:06:29.337Z,4.80
2022-09-26T13:09:02.841Z,7.07
2022-09-26T13:11:34.171Z,5.30
2022-09-26T13:14:14.663Z,10.70
2022-09-26T13:16:51.034Z,6.32
2022-09-26T13:19:23.710Z,6.50
2022-09-26T13:21:54.199Z,8.57
2022-09-26T13:24:24.698Z,9.13
2022-09-26T13:26:54.412Z,5.03
2022-09-26T13:29:26.280Z,7.03
2022-09-26T13:31:58.783Z,6.68
2022-09-26T13:34:29.815Z,4.85
2022-09-26T13:36:59.135Z,6.40
2022-09-26T13:39:30.040Z,4.57
2022-09-26T13:42:01.280Z,6.03
2022-09-26T13:44:39.435Z,6.18
2022-09-26T13:47:13.213Z,7.30
2022-09-26T13:49:55.289Z,5.20
2022-09-26T13:52:27.480Z,5.70
2022-09-26T13:54:57.166Z,6.25
2022-09-26T13:57:31.693Z,7.38
2022-09-26T14:00:01.853Z,8.02
2022-09-26T14:02:30.190Z,6.35
2022-09-26T14:05:16.043Z,7.60
2022-09-26T14:08:07.739Z,9.10
2022-09-26T14:10:36.682Z,7.68
2022-09-26T14:13:08.178Z,7.32
2022-09-26T14:15:50.549Z,6.93
2022-09-26T14:18:32.951Z,8.82
2022-09-26T14:21:04.903Z,7.95
2022-09-26T14:23:42.560Z,4.90
2022-09-26T14:26:24.840Z,6.82
2022-09-26T14:28:53.956Z,7.22
2022-09-26T14:31:36.313Z,7.25
2022-09-26T14:34:24.588Z,5.75
2022-09-26T14:36:54.141Z,4.38
2022-09-26T14:39:28.234Z,8.32
2022-09-26T14:41:56.324Z,13.10
2022-09-26T14:44:24.229Z,8.30
2022-09-26T14:49:20.939Z,7.85
2022-09-26T14:51:49.591Z,3.90
2022-09-26T14:54:21.354Z,4.28
2022-09-26T14:56:49.683Z,8.38
2022-09-26T14:59:28.540Z,8.88
2022-09-26T15:02:11.852Z,7.43
2022-09-26T15:04:39.821Z,7.13
2022-09-26T15:09:44.710Z,10.93
2022-09-26T15:12:16.274Z,5.03
2022-09-26T15:14:45.720Z,5.65
2022-09-26T15:17:17.500Z,11.48
2022-09-26T15:19:48.997Z,7.57
2022-09-26T15:22:18.127Z,8.70
2022-09-26T15:24:47.042Z,10.52
2022-09-26T15:27:18.972Z,8.60
2022-09-26T15:29:47.223Z,4.88
2022-09-26T15:32:19.570Z,6.80
2022-09-26T15:34:47.772Z,11.38
2022-09-26T15:37:17.294Z,7.13
2022-09-26T15:39:44.689Z,9.23
2022-09-26T15:42:42.517Z,5.80
2022-09-26T15:45:27.061Z,6.38
2022-09-26T15:47:55.162Z,6.82
2022-09-26T15:50:24.320Z,6.05
2022-09-26T15:52:55.080Z,6.25
2022-09-26T15:55:24.676Z,6.10
2022-09-26T15:57:54.260Z,10.40
2022-09-26T16:00:21.858Z,7.03
2022-09-26T16:02:49.562Z,6.75
2022-09-26T16:05:17.103Z,6.32
2022-09-26T16:07:48.503Z,8.68
2022-09-26T16:10:24.950Z,13.27
2022-09-26T16:12:54.049Z,5.55
2022-09-26T16:15:22.514Z,6.97
2022-09-26T16:17:54.315Z,4.00
2022-09-26T16:20:26.373Z,5.85
2022-09-26T16:22:58.189Z,13.63
2022-09-26T16:25:32.468Z,5.63
2022-09-26T16:28:03.262Z,7.25
2022-09-26T16:30:37.952Z,7.25
2022-09-26T16:33:29.853Z,6.65
2022-09-26T16:36:03.047Z,5.15
2022-09-26T16:38:32.112Z,3.78
2022-09-26T16:41:02.683Z,4.88
2022-09-26T16:43:32.874Z,5.53
2022-09-26T16:46:02.010Z,7.05
2022-09-26T16:48:36.711Z,5.47
2022-09-26T16:51:15.146Z,7.90
2022-09-26T16:53:44.177Z,10.98
2022-09-26T16:56:12.216Z,3.65
2022-09-26T16:58:43.163Z,7.68
2022-09-26T17:01:29.761Z,9.25
2022-09-26T17:03:57.816Z,7.22
2022-09-26T17:08:52.898Z,6.50
2022-09-26T17:11:20.683Z,4.15
2022-09-26T17:13:50.393Z,8.70
2022-09-26T17:16:17.923Z,4.47
2022-09-26T17:18:45.393Z,12.52
2022-09-26T17:21:13.196Z,8.75
2022-09-26T17:23:42.037Z,8.93
2022-09-26T17:26:13.153Z,5.28
2022-09-26T17:28:42.418Z,6.07
2022-09-26T17:31:14.530Z,6.00
2022-09-26T17:33:42.515Z,5.10
2022-09-26T17:36:11.435Z,9.75
2022-09-26T17:38:41.120Z,6.38
2022-09-26T17:41:12.369Z,4.50
2022-09-26T17:43:39.835Z,8.52
2022-09-26T17:46:12.713Z,5.55
2022-09-26T17:48:44.362Z,7.95
2022-09-26T17:51:13.744Z,6.60
2022-09-26T17:53:49.535Z,9.23
2022-09-26T17:56:17.707Z,10.93
2022-09-26T17:58:45.483Z,5.13
2022-09-26T18:01:18.722Z,10.98
2022-09-26T18:03:47.537Z,8.55
2022-09-26T18:06:15.013Z,14.82
2022-09-26T18:08:45.257Z,11.65
2022-09-26T18:11:15.864Z,15.65
2022-09-26T18:13:46.284Z,14.63
2022-09-26T18:16:14.607Z,42.53
2022-09-26T18:18:42.156Z,11.30
2022-09-26T18:21:15.361Z,7.72
2022-09-26T18:23:44.799Z,8.18
2022-09-26T18:26:14.988Z,9.50
2022-09-26T18:28:42.386Z,8.05
2022-09-26T18:31:11.209Z,11.10
2022-09-26T18:33:38.648Z,7.15
2022-09-26T18:36:06.244Z,11.27
2022-09-26T18:38:35.494Z,12.82
2022-09-26T18:41:03.095Z,15.45
2022-09-26T18:43:31.718Z,12.68
2022-09-26T18:45:59.408Z,11.20
2022-09-26T18:48:28.929Z,9.68
2022-09-26T18:50:57.496Z,8.02
2022-09-26T18:53:26.857Z,7.93
2022-09-26T18:56:13.639Z,7.53
2022-09-26T18:58:41.085Z,15.53
2022-09-26T19:01:09.603Z,9.98
2022-09-26T19:03:38.881Z,12.38
2022-09-26T19:06:08.550Z,10.13
2022-09-26T19:08:37.360Z,9.13
2022-09-26T19:11:13.013Z,8.95
2022-09-26T19:13:40.634Z,17.95
2022-09-26T19:16:08.485Z,9.27
2022-09-26T19:18:36.271Z,16.65
2022-09-26T19:21:04.954Z,9.60
2022-09-26T19:23:33.565Z,117.40
2022-09-26T19:26:01.364Z,18.50
2022-09-26T19:28:33.367Z,16.25
2022-09-26T19:31:01.499Z,10.98
2022-09-26T19:33:29.067Z,9.60
2022-09-26T19:35:56.868Z,6.10
2022-09-26T19:38:25.741Z,16.65
2022-09-26T19:40:53.755Z,13.27
2022-09-26T19:43:22.049Z,11.68
2022-09-26T19:45:53.128Z,15.88
2022-09-26T19:48:21.916Z,9.48
2022-09-26T19:50:49.463Z,11.27
2022-09-26T19:53:17.740Z,16.45
2022-09-26T19:55:45.845Z,11.90
2022-09-26T19:58:14.581Z,13.32
2022-09-26T20:00:44.596Z,8.68
2022-09-26T20:03:18.408Z,12.70
2022-09-26T20:05:46.215Z,12.93
2022-09-26T20:08:15.308Z,11.32
2022-09-26T20:10:43.015Z,13.02
2022-09-26T20:13:10.473Z,14.50
2022-09-26T20:15:37.908Z,11.32
2022-09-26T20:18:06.671Z,10.77
2022-09-26T20:20:36.279Z,13.40
2022-09-26T20:23:03.789Z,21.27
2022-09-26T20:25:33.898Z,18.40
2022-09-26T20:28:01.437Z,18.63
2022-09-26T20:30:46.679Z,14.35
2022-09-26T20:33:14.198Z,12.13
2022-09-26T20:35:45.360Z,13.40
2022-09-26T20:38:16.008Z,15.32
2022-09-26T20:40:43.435Z,15.45
2022-09-26T20:43:14.393Z,11.40
2022-09-26T20:45:43.900Z,16.58
2022-09-26T20:48:16.100Z,11.18
2022-09-26T20:50:44.834Z,12.27
2022-09-26T20:53:15.049Z,17.63
2022-09-26T20:55:44.260Z,19.75
2022-09-26T20:58:12.001Z,17.27
2022-09-26T21:00:39.543Z,13.65
2022-09-26T21:03:07.136Z,16.52
2022-09-26T21:05:34.849Z,15.88
2022-09-26T21:08:05.447Z,11.45
2022-09-26T21:10:33.507Z,22.92
2022-09-26T21:13:01.167Z,19.77
2022-09-26T21:15:29.501Z,16.40
2022-09-26T21:17:57.109Z,31.58
2022-09-26T21:20:25.941Z,22.38
2022-09-26T21:23:18.503Z,20.73
2022-09-26T21:25:46.085Z,22.65
2022-09-26T21:28:20.132Z,22.05
2022-09-26T21:30:47.728Z,14.85
2022-09-26T21:33:15.323Z,26.92
2022-09-26T21:35:43.244Z,24.83
2022-09-26T21:40:40.608Z,22.38
2022-09-26T21:43:10.500Z,23.40
2022-09-26T21:45:37.920Z,24.33
2022-09-26T21:48:05.340Z,36.90
2022-09-26T21:50:32.724Z,22.05
2022-09-26T21:53:01.630Z,33.58
2022-09-26T21:55:30.892Z,30.42
2022-09-26T21:58:02.978Z,24.77
2022-09-26T22:00:30.648Z,40.50
2022-09-26T22:02:59.038Z,33.58
2022-09-26T22:05:26.593Z,35.72
2022-09-26T22:07:54.003Z,23.27
2022-09-26T22:10:21.480Z,34.50
2022-09-26T22:12:48.949Z,38.35
2022-09-26T22:15:17.816Z,34.35
2022-09-26T22:17:45.244Z,39.28
2022-09-26T22:20:12.645Z,41.63
2022-09-26T22:22:40.051Z,44.58
2022-09-26T22:25:08.140Z,37.35
2022-09-26T22:27:36.123Z,39.78
2022-09-26T22:32:32.147Z,40.33
2022-09-26T22:34:59.560Z,42.65
2022-09-26T22:37:27.102Z,48.88
2022-09-26T22:39:54.531Z,44.78
2022-09-26T22:42:21.923Z,51.80
2022-09-26T22:44:49.319Z,47.67
2022-09-26T22:47:16.733Z,58.88
2022-09-26T22:49:45.536Z,56.47
2022-09-26T22:52:12.920Z,49.80
2022-09-26T22:54:40.340Z,69.43
2022-09-26T22:57:07.764Z,68.65
2022-09-26T22:59:35.169Z,68.82
2022-09-26T23:02:02.603Z,61.30
2022-09-26T23:04:46.750Z,53.05
2022-09-26T23:07:16.403Z,59.33
2022-09-26T23:09:43.836Z,41.80
2022-09-26T23:12:11.547Z,59.45
2022-09-26T23:14:38.954Z,58.83
2022-09-26T23:17:06.413Z,38.53
2022-09-26T23:19:34.003Z,40.35
2022-09-26T23:22:01.381Z,35.65
2022-09-26T23:24:30.260Z,43.15
2022-09-26T23:26:58.461Z,33.20
2022-09-26T23:29:25.898Z,27.40
2022-09-26T23:31:53.714Z,26.83
2022-09-26T23:34:21.217Z,23.80
2022-09-26T23:36:48.630Z,26.60
2022-09-26T23:39:16.062Z,23.77
2022-09-26T23:41:44.845Z,22.08
2022-09-26T23:44:12.278Z,17.27
2022-09-26T23:46:39.871Z,20.92
2022-09-26T23:49:07.374Z,15.35
2022-09-26T23:51:34.835Z,16.00
2022-09-26T23:54:02.644Z,19.73
2022-09-26T23:56:30.059Z,33.30
2022-09-26T23:58:58.789Z,23.85
